EW9439 Weather Reports


Display with metric or nautical units.
time (UTC)temp
F
wind
direction
speed
MPH
gust
MPH
rain 1hr
in
rain 24hr
in
rain mn
in
humidity
%
barometer
mb
20220522020022 78 184 0.0 0.0 0.00 0.00 0.00 69 1016.8
20220522014556 78 184 0.0 0.0 0.00 0.00 0.00 68 1016.8
20220522013025 79 184 0.0 0.0 0.00 0.00 0.00 67 1017.0
20220522011527 80 184 0.0 0.0 0.00 0.00 0.00 66 1016.6
20220522010026 80 184 0.0 0.0 0.00 0.00 0.00 65 1016.6
20220522004531 81 184 0.0 0.0 0.00 0.00 0.00 63 1016.3
20220522003035 81 184 0.0 0.0 0.00 0.00 0.00 63 1016.1
20220522001539 82 184 0.0 0.0 0.00 0.00 0.00 63 1015.7
20220522000040 82 184 0.0 0.0 0.00 0.00 0.00 63 1015.4
20220521234554 82 184 0.0 0.0 0.00 0.00 0.00 61 1015.2
20220521233049 83 184 0.0 0.0 0.00 0.00 0.00 60 1015.2
20220521231556 84 184 0.0 0.0 0.00 0.00 0.00 59 1015.2
20220521230039 84 215 0.0 1.0 0.00 0.00 0.00 58 1015.2
20220521224550 85 49 0.0 0.0 0.00 0.00 0.00 58 1014.8
20220521223048 85 193 0.0 1.0 0.00 0.00 0.00 57 1014.5
20220521221601 84 127 0.0 0.0 0.00 0.00 0.00 57 1014.6
20220521220040 84 127 0.0 0.0 0.00 0.00 0.00 57 1014.5
20220521214543 85 127 0.0 0.0 0.00 0.00 0.00 55 1014.3
20220521213047 85 127 0.0 0.0 0.00 0.00 0.00 54 1014.6
20220521211604 85 127 0.0 0.0 0.00 0.00 0.00 54 1014.4
20220521210053 84 127 0.0 0.0 0.00 0.00 0.00 55 1014.5
20220521204601 84 127 0.0 0.0 0.00 0.00 0.00 55 1014.6
20220521203058 84 127 0.0 0.0 0.00 0.00 0.00 55 1014.7
20220521201545 84 127 0.0 0.0 0.00 0.00 0.00 57 1015.0
20220521200044 85 127 0.0 0.0 0.00 0.00 0.00 57 1015.2
20220521194557 85 127 0.0 2.0 0.00 0.00 0.00 57 1015.3
20220521193057 85 127 0.0 0.0 0.00 0.00 0.00 61 1015.6
20220521191555 84 127 0.0 0.0 0.00 0.00 0.00 65 1015.8
20220521190036 84 127 0.0 0.0 0.00 0.00 0.00 65 1016.0
20220521184542 83 176 0.0 0.0 0.00 0.00 0.00 67 1016.2
20220521183040 82 155 0.0 0.0 0.00 0.00 0.00 68 1016.4
20220521181541 83 318 0.0 0.0 0.00 0.00 0.00 64 1016.6
20220521180050 84 318 0.0 0.0 0.00 0.00 0.00 63 1016.9
20220521174552 84 162 0.0 0.0 0.00 0.00 0.00 62 1017.3
20220521173052 84 329 0.0 0.0 0.00 0.00 0.00 63 1017.3
20220521171606 84 156 0.0 1.0 0.00 0.00 0.00 63 1017.4
20220521170105 83 142 0.0 4.0 0.00 0.00 0.00 65 1017.2
20220521164556 83 50 0.0 1.0 0.00 0.00 0.00 66 1017.2
20220521163037 82 111 0.0 0.0 0.00 0.00 0.00 68 1017.6
20220521161545 81 110 0.0 0.0 0.00 0.00 0.00 73 1017.7
20220521160037 80 309 0.0 0.0 0.00 0.00 0.00 74 1017.8
20220521154539 77 142 0.0 0.0 0.00 0.00 0.00 80 1017.6
20220521153048 79 142 0.0 0.0 0.00 0.00 0.00 75 1017.4
20220521151541 79 161 0.0 0.0 0.00 0.00 0.00 76 1017.0
20220521150041 77 36 0.0 0.0 0.00 0.00 0.00 81 1017.0
20220521144548 77 36 0.0 0.0 0.00 0.00 0.00 79 1016.9
20220521143045 78 17 0.0 0.0 0.00 0.00 0.00 79 1016.8
20220521141539 76 17 0.0 0.0 0.00 0.00 0.00 82 1016.8
20220521140053 76 17 0.0 0.0 0.00 0.00 0.00 81 1016.8
20220521134550 76 103 0.0 0.0 0.00 0.00 0.00 82 1016.7
20220521133101 75 103 0.0 0.0 0.00 0.00 0.00 84 1016.5
20220521131559 74 95 0.0 0.0 0.00 0.00 0.00 87 1016.5
20220521131501 74 95 0.0 0.0 0.00 0.00 0.00 86 1016.5
20220521130110 73 95 0.0 0.0 0.00 0.00 0.00 87 1016.5
20220521130001 73 95 0.0 0.0 0.00 0.00 0.00 87 1016.5
20220521124505 73 95 0.0 0.0 0.00 0.00 0.00 88 1016.4
20220521123011 72 95 0.0 0.0 0.00 0.00 0.00 89 1016.1
20220521121514 72 95 0.0 0.0 0.00 0.00 0.00 90 1016.2
20220521120015 72 95 0.0 0.0 0.00 0.00 0.00 90 1016.1
20220521114527 71 95 0.0 0.0 0.00 0.00 0.00 90 1015.9
20220521113018 71 95 0.0 0.0 0.00 0.00 0.00 90 1015.8
20220521111532 71 95 0.0 0.0 0.00 0.00 0.00 90 1015.7
20220521110019 70 140 0.0 0.0 0.00 0.00 0.00 91 1015.6
20220521104522 69 140 0.0 0.0 0.00 0.00 0.00 90 1015.5
20220521103028 69 140 0.0 0.0 0.00 0.00 0.00 90 1015.2
20220521101526 69 140 0.0 0.0 0.00 0.00 0.00 89 1015.1
20220521100031 69 140 0.0 0.0 0.00 0.00 0.00 89 1014.9
20220521094534 70 140 0.0 0.0 0.00 0.00 0.00 88 1014.7
20220521093030 69 140 0.0 0.0 0.00 0.00 0.00 88 1014.7
20220521091530 70 140 0.0 0.0 0.00 0.00 0.00 87 1014.5
20220521090038 70 140 0.0 0.0 0.00 0.00 0.00 86 1014.3
20220521084534 70 140 0.0 0.0 0.00 0.00 0.00 85 1014.1
20220521083042 71 140 0.0 0.0 0.00 0.00 0.00 85 1014.0
20220521081538 71 140 0.0 0.0 0.00 0.00 0.00 84 1013.7
20220521080039 71 140 0.0 0.0 0.00 0.00 0.00 83 1013.7
20220521074556 72 140 0.0 0.0 0.00 0.00 0.00 82 1013.7
20220521073042 72 140 0.0 0.0 0.00 0.00 0.00 81 1013.8
20220521071527 73 140 0.0 0.0 0.00 0.00 0.00 80 1013.6
20220521070028 74 140 0.0 0.0 0.00 0.00 0.00 78 1013.4
20220521063104 74 140 0.0 0.0 0.00 0.00 0.00 76 1013.4
20220521061554 75 140 0.0 0.0 0.00 0.00 0.00 75 1013.4
20220521060112 75 140 0.0 0.0 0.00 0.00 0.00 74 1013.5
20220521054600 75 140 0.0 0.0 0.00 0.00 0.00 74 1013.5
20220521054506 75 140 0.0 0.0 0.00 0.00 0.00 74 1013.5
20220521053006 75 140 0.0 0.0 0.00 0.00 0.00 73 1013.4
20220521051508 75 140 0.0 0.0 0.00 0.00 0.00 73 1013.4
20220521050012 75 140 0.0 0.0 0.00 0.00 0.00 73 1013.4
20220521044515 76 140 0.0 0.0 0.00 0.00 0.00 74 1013.3
20220521043031 76 140 0.0 0.0 0.00 0.00 0.00 74 1013.3
20220521041517 76 140 0.0 0.0 0.00 0.00 0.00 74 1013.3
20220521040030 76 140 0.0 0.0 0.00 0.00 0.00 74 1013.2
20220521034534 76 140 0.0 0.0 0.00 0.00 0.00 73 1013.3
20220521033021 76 140 0.0 0.0 0.00 0.00 0.00 73 1013.3
20220521031525 77 140 0.0 0.0 0.00 0.00 0.00 71 1013.3
20220521030005 77 140 0.0 0.0 0.00 0.00 0.00 70 1013.0
20220521024512 78 140 0.0 0.0 0.00 0.00 0.00 69 1012.9
20220521023015 78 140 0.0 0.0 0.00 0.00 0.00 68 1012.5
20220521021523 78 140 0.0 0.0 0.00 0.00 0.00 67 1012.1